sensor_id;sensor_type;location;lat;lon;timestamp;temperature;humidity
12634;DHT22;6382;48.614;8.880;2022-07-23T00:00:09;22.90;99.90
12634;DHT22;6382;48.614;8.880;2022-07-23T00:02:36;21.30;99.90
12634;DHT22;6382;48.614;8.880;2022-07-23T00:05:03;22.50;99.90
12634;DHT22;6382;48.614;8.880;2022-07-23T00:07:30;21.20;99.90
12634;DHT22;6382;48.614;8.880;2022-07-23T00:09:57;21.60;99.90
12634;DHT22;6382;48.614;8.880;2022-07-23T00:12:23;21.20;99.90
12634;DHT22;6382;48.614;8.880;2022-07-23T00:14:51;23.00;99.90
12634;DHT22;6382;48.614;8.880;2022-07-23T00:17:17;21.20;99.90
12634;DHT22;6382;48.614;8.880;2022-07-23T00:19:44;22.70;99.90
12634;DHT22;6382;48.614;8.880;2022-07-23T00:22:11;22.70;99.90
12634;DHT22;6382;48.614;8.880;2022-07-23T00:24:38;20.00;99.90
12634;DHT22;6382;48.614;8.880;2022-07-23T00:27:04;21.10;99.90
12634;DHT22;6382;48.614;8.880;2022-07-23T00:29:31;22.80;99.90
12634;DHT22;6382;48.614;8.880;2022-07-23T00:31:58;21.00;99.90
12634;DHT22;6382;48.614;8.880;2022-07-23T00:34:25;21.70;99.90
12634;DHT22;6382;48.614;8.880;2022-07-23T00:36:51;24.10;99.90
12634;DHT22;6382;48.614;8.880;2022-07-23T00:39:20;21.20;99.90
12634;DHT22;6382;48.614;8.880;2022-07-23T00:41:49;20.90;99.90
12634;DHT22;6382;48.614;8.880;2022-07-23T00:44:16;21.50;99.90
12634;DHT22;6382;48.614;8.880;2022-07-23T00:46:48;22.10;99.90
12634;DHT22;6382;48.614;8.880;2022-07-23T00:49:15;20.90;99.90
12634;DHT22;6382;48.614;8.880;2022-07-23T00:51:41;20.90;99.90
12634;DHT22;6382;48.614;8.880;2022-07-23T00:54:08;20.90;99.90
12634;DHT22;6382;48.614;8.880;2022-07-23T00:56:35;21.70;99.90
12634;DHT22;6382;48.614;8.880;2022-07-23T00:59:02;20.90;99.90
12634;DHT22;6382;48.614;8.880;2022-07-23T01:01:29;21.70;99.90
12634;DHT22;6382;48.614;8.880;2022-07-23T01:03:56;22.50;99.90
12634;DHT22;6382;48.614;8.880;2022-07-23T01:06:23;20.80;99.90
12634;DHT22;6382;48.614;8.880;2022-07-23T01:08:49;20.90;99.90
12634;DHT22;6382;48.614;8.880;2022-07-23T01:11:17;20.80;99.90
12634;DHT22;6382;48.614;8.880;2022-07-23T01:13:44;20.70;99.90
12634;DHT22;6382;48.614;8.880;2022-07-23T01:16:11;20.70;99.90
12634;DHT22;6382;48.614;8.880;2022-07-23T01:18:38;20.70;99.90
12634;DHT22;6382;48.614;8.880;2022-07-23T01:21:05;20.70;99.90
12634;DHT22;6382;48.614;8.880;2022-07-23T01:23:31;20.70;99.90
12634;DHT22;6382;48.614;8.880;2022-07-23T01:25:58;22.30;99.90
12634;DHT22;6382;48.614;8.880;2022-07-23T01:28:25;22.30;99.90
12634;DHT22;6382;48.614;8.880;2022-07-23T01:30:51;20.60;99.90
12634;DHT22;6382;48.614;8.880;2022-07-23T01:33:18;22.00;99.90
12634;DHT22;6382;48.614;8.880;2022-07-23T01:35:45;21.00;99.90
12634;DHT22;6382;48.614;8.880;2022-07-23T01:38:12;23.10;99.90
12634;DHT22;6382;48.614;8.880;2022-07-23T01:40:38;20.30;99.90
12634;DHT22;6382;48.614;8.880;2022-07-23T01:43:05;20.30;99.90
12634;DHT22;6382;48.614;8.880;2022-07-23T01:45:33;20.30;99.90
12634;DHT22;6382;48.614;8.880;2022-07-23T01:48:00;20.20;99.90
12634;DHT22;6382;48.614;8.880;2022-07-23T01:50:27;20.40;99.90
12634;DHT22;6382;48.614;8.880;2022-07-23T01:52:53;20.20;99.90
12634;DHT22;6382;48.614;8.880;2022-07-23T01:55:20;21.70;99.90
12634;DHT22;6382;48.614;8.880;2022-07-23T01:57:46;20.50;99.90
12634;DHT22;6382;48.614;8.880;2022-07-23T02:00:13;20.50;99.90
12634;DHT22;6382;48.614;8.880;2022-07-23T02:02:40;20.20;99.90
12634;DHT22;6382;48.614;8.880;2022-07-23T02:05:07;20.20;99.90
12634;DHT22;6382;48.614;8.880;2022-07-23T02:07:34;20.10;99.90
12634;DHT22;6382;48.614;8.880;2022-07-23T02:10:01;20.10;99.90
12634;DHT22;6382;48.614;8.880;2022-07-23T02:12:28;20.00;99.90
12634;DHT22;6382;48.614;8.880;2022-07-23T02:14:54;20.00;99.90
12634;DHT22;6382;48.614;8.880;2022-07-23T02:17:21;20.80;99.90
12634;DHT22;6382;48.614;8.880;2022-07-23T02:19:48;23.20;99.90
12634;DHT22;6382;48.614;8.880;2022-07-23T02:22:14;21.30;99.90
12634;DHT22;6382;48.614;8.880;2022-07-23T02:24:41;19.90;99.90
12634;DHT22;6382;48.614;8.880;2022-07-23T02:27:08;19.90;99.90
12634;DHT22;6382;48.614;8.880;2022-07-23T02:29:34;20.70;99.90
12634;DHT22;6382;48.614;8.880;2022-07-23T02:32:01;19.90;99.90
12634;DHT22;6382;48.614;8.880;2022-07-23T02:34:28;19.90;99.90
12634;DHT22;6382;48.614;8.880;2022-07-23T02:36:54;21.40;99.90
12634;DHT22;6382;48.614;8.880;2022-07-23T02:39:21;20.00;99.90
12634;DHT22;6382;48.614;8.880;2022-07-23T02:41:48;20.00;99.90
12634;DHT22;6382;48.614;8.880;2022-07-23T02:44:15;20.00;99.90
12634;DHT22;6382;48.614;8.880;2022-07-23T02:46:41;21.60;99.90
12634;DHT22;6382;48.614;8.880;2022-07-23T02:49:08;20.00;99.90
12634;DHT22;6382;48.614;8.880;2022-07-23T02:51:35;21.10;99.90
12634;DHT22;6382;48.614;8.880;2022-07-23T02:54:01;20.10;99.90
12634;DHT22;6382;48.614;8.880;2022-07-23T02:56:28;20.00;99.90
12634;DHT22;6382;48.614;8.880;2022-07-23T02:58:55;20.00;99.90
12634;DHT22;6382;48.614;8.880;2022-07-23T03:01:21;22.50;99.90
12634;DHT22;6382;48.614;8.880;2022-07-23T03:03:48;21.80;99.90
12634;DHT22;6382;48.614;8.880;2022-07-23T03:06:17;20.10;99.90
12634;DHT22;6382;48.614;8.880;2022-07-23T03:08:43;20.20;99.90
12634;DHT22;6382;48.614;8.880;2022-07-23T03:11:10;20.20;99.90
12634;DHT22;6382;48.614;8.880;2022-07-23T03:13:42;21.40;99.90
12634;DHT22;6382;48.614;8.880;2022-07-23T03:16:09;22.00;99.90
12634;DHT22;6382;48.614;8.880;2022-07-23T03:18:36;20.30;99.90
12634;DHT22;6382;48.614;8.880;2022-07-23T03:21:06;20.30;99.90
12634;DHT22;6382;48.614;8.880;2022-07-23T03:23:33;20.30;99.90
12634;DHT22;6382;48.614;8.880;2022-07-23T03:26:01;20.20;99.90
12634;DHT22;6382;48.614;8.880;2022-07-23T03:28:27;21.80;99.90
12634;DHT22;6382;48.614;8.880;2022-07-23T03:30:54;20.90;99.90
12634;DHT22;6382;48.614;8.880;2022-07-23T03:33:21;20.90;99.90
12634;DHT22;6382;48.614;8.880;2022-07-23T03:35:47;20.40;99.90
12634;DHT22;6382;48.614;8.880;2022-07-23T03:38:14;22.00;99.90
12634;DHT22;6382;48.614;8.880;2022-07-23T03:40:41;21.60;99.90
12634;DHT22;6382;48.614;8.880;2022-07-23T03:43:07;21.40;99.90
12634;DHT22;6382;48.614;8.880;2022-07-23T03:45:34;22.30;99.90
12634;DHT22;6382;48.614;8.880;2022-07-23T03:48:01;19.80;99.90
12634;DHT22;6382;48.614;8.880;2022-07-23T03:50:27;20.90;99.90
12634;DHT22;6382;48.614;8.880;2022-07-23T03:52:54;20.40;99.90
12634;DHT22;6382;48.614;8.880;2022-07-23T03:55:21;19.80;99.90
12634;DHT22;6382;48.614;8.880;2022-07-23T03:57:47;19.80;99.90
12634;DHT22;6382;48.614;8.880;2022-07-23T04:00:14;19.90;99.90
12634;DHT22;6382;48.614;8.880;2022-07-23T04:02:41;19.90;99.90
12634;DHT22;6382;48.614;8.880;2022-07-23T04:05:08;19.90;99.90
12634;DHT22;6382;48.614;8.880;2022-07-23T04:07:34;19.90;99.90
12634;DHT22;6382;48.614;8.880;2022-07-23T04:10:01;20.20;99.90
12634;DHT22;6382;48.614;8.880;2022-07-23T04:12:28;20.00;99.90
12634;DHT22;6382;48.614;8.880;2022-07-23T04:14:55;20.10;99.90
12634;DHT22;6382;48.614;8.880;2022-07-23T04:17:21;21.70;99.90
12634;DHT22;6382;48.614;8.880;2022-07-23T04:19:48;20.10;99.90
12634;DHT22;6382;48.614;8.880;2022-07-23T04:22:15;20.10;99.90
12634;DHT22;6382;48.614;8.880;2022-07-23T04:24:41;20.40;99.90
12634;DHT22;6382;48.614;8.880;2022-07-23T04:27:08;22.90;99.90
12634;DHT22;6382;48.614;8.880;2022-07-23T04:29:35;22.70;99.90
12634;DHT22;6382;48.614;8.880;2022-07-23T04:32:01;20.10;99.90
12634;DHT22;6382;48.614;8.880;2022-07-23T04:34:28;20.10;99.90
12634;DHT22;6382;48.614;8.880;2022-07-23T04:36:55;20.00;99.90
12634;DHT22;6382;48.614;8.880;2022-07-23T04:39:21;20.00;99.90
12634;DHT22;6382;48.614;8.880;2022-07-23T04:41:51;19.90;99.90
12634;DHT22;6382;48.614;8.880;2022-07-23T04:44:18;20.00;99.90
12634;DHT22;6382;48.614;8.880;2022-07-23T04:46:44;21.20;99.90
12634;DHT22;6382;48.614;8.880;2022-07-23T04:49:12;20.50;99.90
12634;DHT22;6382;48.614;8.880;2022-07-23T04:51:39;22.80;99.90
12634;DHT22;6382;48.614;8.880;2022-07-23T04:54:06;22.60;99.90
12634;DHT22;6382;48.614;8.880;2022-07-23T04:56:32;20.40;99.90
12634;DHT22;6382;48.614;8.880;2022-07-23T04:58:59;22.40;99.90
12634;DHT22;6382;48.614;8.880;2022-07-23T05:01:26;22.30;99.90
12634;DHT22;6382;48.614;8.880;2022-07-23T05:03:53;20.50;99.90
12634;DHT22;6382;48.614;8.880;2022-07-23T05:06:20;20.50;99.90
12634;DHT22;6382;48.614;8.880;2022-07-23T05:08:46;22.40;99.90
12634;DHT22;6382;48.614;8.880;2022-07-23T05:11:13;20.60;99.90
12634;DHT22;6382;48.614;8.880;2022-07-23T05:13:40;20.70;99.90
12634;DHT22;6382;48.614;8.880;2022-07-23T05:16:06;20.80;99.90
12634;DHT22;6382;48.614;8.880;2022-07-23T05:18:33;20.80;99.90
12634;DHT22;6382;48.614;8.880;2022-07-23T05:21:00;23.00;99.90
12634;DHT22;6382;48.614;8.880;2022-07-23T05:23:27;23.50;99.90
12634;DHT22;6382;48.614;8.880;2022-07-23T05:25:53;21.00;99.90
12634;DHT22;6382;48.614;8.880;2022-07-23T05:28:20;23.80;99.90
12634;DHT22;6382;48.614;8.880;2022-07-23T05:30:48;21.10;99.90
12634;DHT22;6382;48.614;8.880;2022-07-23T05:33:14;21.30;99.90
12634;DHT22;6382;48.614;8.880;2022-07-23T05:35:41;21.20;99.90
12634;DHT22;6382;48.614;8.880;2022-07-23T05:38:08;22.50;99.90
12634;DHT22;6382;48.614;8.880;2022-07-23T05:40:35;21.20;99.90
12634;DHT22;6382;48.614;8.880;2022-07-23T05:43:01;21.70;99.90
12634;DHT22;6382;48.614;8.880;2022-07-23T05:45:28;21.20;99.90
12634;DHT22;6382;48.614;8.880;2022-07-23T05:47:55;24.30;99.90
12634;DHT22;6382;48.614;8.880;2022-07-23T05:50:21;21.30;99.90
12634;DHT22;6382;48.614;8.880;2022-07-23T05:52:48;21.60;99.90
12634;DHT22;6382;48.614;8.880;2022-07-23T05:55:15;21.60;99.90
12634;DHT22;6382;48.614;8.880;2022-07-23T05:57:42;24.10;99.90
12634;DHT22;6382;48.614;8.880;2022-07-23T06:00:09;23.60;99.90
12634;DHT22;6382;48.614;8.880;2022-07-23T06:02:37;22.00;99.90
12634;DHT22;6382;48.614;8.880;2022-07-23T06:05:04;22.10;99.90
12634;DHT22;6382;48.614;8.880;2022-07-23T06:07:30;22.10;99.90
12634;DHT22;6382;48.614;8.880;2022-07-23T06:09:57;22.20;99.90
12634;DHT22;6382;48.614;8.880;2022-07-23T06:12:24;22.30;99.90
12634;DHT22;6382;48.614;8.880;2022-07-23T06:14:52;22.40;99.90
12634;DHT22;6382;48.614;8.880;2022-07-23T06:17:18;22.50;99.90
12634;DHT22;6382;48.614;8.880;2022-07-23T06:19:45;22.70;99.90
12634;DHT22;6382;48.614;8.880;2022-07-23T06:22:12;23.80;99.90
12634;DHT22;6382;48.614;8.880;2022-07-23T06:24:38;23.40;99.90
12634;DHT22;6382;48.614;8.880;2022-07-23T06:27:05;22.90;99.90
12634;DHT22;6382;48.614;8.880;2022-07-23T06:29:32;24.60;99.90
12634;DHT22;6382;48.614;8.880;2022-07-23T06:31:58;23.80;99.90
12634;DHT22;6382;48.614;8.880;2022-07-23T06:34:25;23.50;99.90
12634;DHT22;6382;48.614;8.880;2022-07-23T06:36:52;24.10;99.90
12634;DHT22;6382;48.614;8.880;2022-07-23T06:39:19;25.20;99.90
12634;DHT22;6382;48.614;8.880;2022-07-23T06:41:45;24.10;99.90
12634;DHT22;6382;48.614;8.880;2022-07-23T06:44:17;24.10;99.90
12634;DHT22;6382;48.614;8.880;2022-07-23T06:46:43;24.30;99.90
12634;DHT22;6382;48.614;8.880;2022-07-23T06:49:10;23.30;99.90
12634;DHT22;6382;48.614;8.880;2022-07-23T06:51:37;24.20;99.90
12634;DHT22;6382;48.614;8.880;2022-07-23T06:54:04;23.20;99.90
12634;DHT22;6382;48.614;8.880;2022-07-23T06:56:30;23.20;99.90
12634;DHT22;6382;48.614;8.880;2022-07-23T06:58:57;23.80;99.90
12634;DHT22;6382;48.614;8.880;2022-07-23T07:01:24;23.50;99.90
12634;DHT22;6382;48.614;8.880;2022-07-23T07:03:51;25.60;99.90
12634;DHT22;6382;48.614;8.880;2022-07-23T07:06:17;22.90;99.90
12634;DHT22;6382;48.614;8.880;2022-07-23T07:08:44;22.80;99.90
12634;DHT22;6382;48.614;8.880;2022-07-23T07:11:11;22.80;99.90
12634;DHT22;6382;48.614;8.880;2022-07-23T07:13:38;24.50;99.90
12634;DHT22;6382;48.614;8.880;2022-07-23T07:16:04;23.00;99.90
12634;DHT22;6382;48.614;8.880;2022-07-23T07:18:31;22.90;99.90
12634;DHT22;6382;48.614;8.880;2022-07-23T07:20:58;24.10;99.90
12634;DHT22;6382;48.614;8.880;2022-07-23T07:23:25;23.00;99.90
12634;DHT22;6382;48.614;8.880;2022-07-23T07:25:51;23.10;99.90
12634;DHT22;6382;48.614;8.880;2022-07-23T07:28:18;24.10;99.90
12634;DHT22;6382;48.614;8.880;2022-07-23T07:30:45;23.30;99.90
12634;DHT22;6382;48.614;8.880;2022-07-23T07:33:11;25.30;99.90
12634;DHT22;6382;48.614;8.880;2022-07-23T07:35:38;24.50;99.90
12634;DHT22;6382;48.614;8.880;2022-07-23T07:38:05;23.70;99.90
12634;DHT22;6382;48.614;8.880;2022-07-23T07:40:31;25.90;99.90
12634;DHT22;6382;48.614;8.880;2022-07-23T07:43:00;23.90;99.90
12634;DHT22;6382;48.614;8.880;2022-07-23T07:45:28;24.10;99.90
12634;DHT22;6382;48.614;8.880;2022-07-23T07:47:55;24.00;99.90
12634;DHT22;6382;48.614;8.880;2022-07-23T07:50:22;24.50;99.90
12634;DHT22;6382;48.614;8.880;2022-07-23T07:52:49;25.80;99.90
12634;DHT22;6382;48.614;8.880;2022-07-23T07:55:15;23.80;99.90
12634;DHT22;6382;48.614;8.880;2022-07-23T07:57:43;25.20;99.90
12634;DHT22;6382;48.614;8.880;2022-07-23T08:00:15;23.60;99.90
12634;DHT22;6382;48.614;8.880;2022-07-23T08:05:12;23.40;99.90
12634;DHT22;6382;48.614;8.880;2022-07-23T08:07:39;24.60;99.90
12634;DHT22;6382;48.614;8.880;2022-07-23T08:10:07;23.40;99.90
12634;DHT22;6382;48.614;8.880;2022-07-23T08:12:41;23.50;99.90
12634;DHT22;6382;48.614;8.880;2022-07-23T08:15:08;23.60;99.90
12634;DHT22;6382;48.614;8.880;2022-07-23T08:17:40;23.60;99.90
12634;DHT22;6382;48.614;8.880;2022-07-23T08:20:07;23.90;99.90
12634;DHT22;6382;48.614;8.880;2022-07-23T08:25:16;23.70;99.90
12634;DHT22;6382;48.614;8.880;2022-07-23T08:27:42;24.30;99.90
12634;DHT22;6382;48.614;8.880;2022-07-23T08:30:09;23.80;99.90
12634;DHT22;6382;48.614;8.880;2022-07-23T08:32:52;23.90;99.90
12634;DHT22;6382;48.614;8.880;2022-07-23T08:35:23;23.90;99.90
12634;DHT22;6382;48.614;8.880;2022-07-23T08:37:50;24.00;99.90
12634;DHT22;6382;48.614;8.880;2022-07-23T08:40:17;24.00;99.90
12634;DHT22;6382;48.614;8.880;2022-07-23T08:42:46;24.00;99.90
12634;DHT22;6382;48.614;8.880;2022-07-23T08:45:13;23.90;99.90
12634;DHT22;6382;48.614;8.880;2022-07-23T08:47:42;24.00;99.90
12634;DHT22;6382;48.614;8.880;2022-07-23T08:50:14;26.40;99.90
12634;DHT22;6382;48.614;8.880;2022-07-23T08:52:41;24.10;99.90
12634;DHT22;6382;48.614;8.880;2022-07-23T08:55:08;24.10;99.90
12634;DHT22;6382;48.614;8.880;2022-07-23T08:57:35;24.20;99.90
12634;DHT22;6382;48.614;8.880;2022-07-23T09:00:02;24.40;99.90
12634;DHT22;6382;48.614;8.880;2022-07-23T09:02:29;24.60;99.90
12634;DHT22;6382;48.614;8.880;2022-07-23T09:04:56;26.10;99.90
12634;DHT22;6382;48.614;8.880;2022-07-23T09:07:23;24.90;99.90
12634;DHT22;6382;48.614;8.880;2022-07-23T09:09:58;24.90;99.90
12634;DHT22;6382;48.614;8.880;2022-07-23T09:12:30;25.10;99.90
12634;DHT22;6382;48.614;8.880;2022-07-23T09:14:57;25.90;99.90
12634;DHT22;6382;48.614;8.880;2022-07-23T09:17:29;25.20;99.90
12634;DHT22;6382;48.614;8.880;2022-07-23T09:20:15;25.40;99.90
12634;DHT22;6382;48.614;8.880;2022-07-23T09:22:46;25.50;99.90
12634;DHT22;6382;48.614;8.880;2022-07-23T09:25:14;25.60;99.90
12634;DHT22;6382;48.614;8.880;2022-07-23T09:30:26;25.20;99.90
12634;DHT22;6382;48.614;8.880;2022-07-23T09:33:14;25.10;99.90
12634;DHT22;6382;48.614;8.880;2022-07-23T09:38:14;24.70;99.90
12634;DHT22;6382;48.614;8.880;2022-07-23T09:40:41;25.70;99.90
12634;DHT22;6382;48.614;8.880;2022-07-23T09:43:07;24.70;99.90
12634;DHT22;6382;48.614;8.880;2022-07-23T09:45:34;24.70;99.90
12634;DHT22;6382;48.614;8.880;2022-07-23T09:48:11;24.70;99.90
12634;DHT22;6382;48.614;8.880;2022-07-23T09:50:39;24.70;99.90
12634;DHT22;6382;48.614;8.880;2022-07-23T09:53:06;24.80;99.90
12634;DHT22;6382;48.614;8.880;2022-07-23T09:55:33;24.80;99.90
12634;DHT22;6382;48.614;8.880;2022-07-23T09:58:03;25.80;99.90
12634;DHT22;6382;48.614;8.880;2022-07-23T10:00:30;26.30;99.90
12634;DHT22;6382;48.614;8.880;2022-07-23T10:02:57;25.20;99.90
12634;DHT22;6382;48.614;8.880;2022-07-23T10:05:25;26.50;99.90
12634;DHT22;6382;48.614;8.880;2022-07-23T10:07:52;25.70;99.90
12634;DHT22;6382;48.614;8.880;2022-07-23T10:10:19;28.10;99.90
12634;DHT22;6382;48.614;8.880;2022-07-23T10:12:47;26.10;99.90
12634;DHT22;6382;48.614;8.880;2022-07-23T10:15:28;26.40;99.90
12634;DHT22;6382;48.614;8.880;2022-07-23T10:17:54;26.60;99.90
12634;DHT22;6382;48.614;8.880;2022-07-23T10:20:21;26.50;99.90
12634;DHT22;6382;48.614;8.880;2022-07-23T10:23:11;26.70;99.90
12634;DHT22;6382;48.614;8.880;2022-07-23T10:25:43;26.60;99.90
12634;DHT22;6382;48.614;8.880;2022-07-23T10:31:04;27.20;99.90
12634;DHT22;6382;48.614;8.880;2022-07-23T10:36:19;26.60;99.90
12634;DHT22;6382;48.614;8.880;2022-07-23T10:41:17;26.50;99.90
12634;DHT22;6382;48.614;8.880;2022-07-23T10:44:06;26.50;99.90
12634;DHT22;6382;48.614;8.880;2022-07-23T10:46:33;26.60;99.90
12634;DHT22;6382;48.614;8.880;2022-07-23T10:54:41;26.90;99.90
12634;DHT22;6382;48.614;8.880;2022-07-23T10:57:09;26.80;99.90
12634;DHT22;6382;48.614;8.880;2022-07-23T11:02:22;26.80;99.90
12634;DHT22;6382;48.614;8.880;2022-07-23T11:04:52;26.40;99.90
12634;DHT22;6382;48.614;8.880;2022-07-23T11:07:19;26.40;99.90
12634;DHT22;6382;48.614;8.880;2022-07-23T11:09:47;26.50;99.90
12634;DHT22;6382;48.614;8.880;2022-07-23T11:17:31;27.00;99.90
12634;DHT22;6382;48.614;8.880;2022-07-23T11:25:11;28.70;99.90
12634;DHT22;6382;48.614;8.880;2022-07-23T11:27:41;27.30;99.90
12634;DHT22;6382;48.614;8.880;2022-07-23T11:30:09;27.30;99.90
12634;DHT22;6382;48.614;8.880;2022-07-23T11:32:37;26.90;99.90
12634;DHT22;6382;48.614;8.880;2022-07-23T11:37:52;26.60;99.90
12634;DHT22;6382;48.614;8.880;2022-07-23T11:40:20;27.60;99.90
12634;DHT22;6382;48.614;8.880;2022-07-23T11:42:54;26.70;99.90
12634;DHT22;6382;48.614;8.880;2022-07-23T11:45:21;26.70;99.90
12634;DHT22;6382;48.614;8.880;2022-07-23T11:47:48;26.60;99.90
12634;DHT22;6382;48.614;8.880;2022-07-23T11:50:15;26.70;99.90
12634;DHT22;6382;48.614;8.880;2022-07-23T11:52:42;26.80;99.90
12634;DHT22;6382;48.614;8.880;2022-07-23T11:55:09;26.80;99.90
12634;DHT22;6382;48.614;8.880;2022-07-23T11:57:37;27.00;99.90
12634;DHT22;6382;48.614;8.880;2022-07-23T12:00:08;27.20;99.90
12634;DHT22;6382;48.614;8.880;2022-07-23T12:02:48;27.40;99.90
12634;DHT22;6382;48.614;8.880;2022-07-23T12:05:26;27.50;99.90
12634;DHT22;6382;48.614;8.880;2022-07-23T12:07:54;27.50;99.90
12634;DHT22;6382;48.614;8.880;2022-07-23T12:10:34;27.50;99.90
12634;DHT22;6382;48.614;8.880;2022-07-23T12:13:03;27.50;99.90
12634;DHT22;6382;48.614;8.880;2022-07-23T12:15:31;27.50;99.90
12634;DHT22;6382;48.614;8.880;2022-07-23T12:17:59;27.30;99.90
12634;DHT22;6382;48.614;8.880;2022-07-23T12:20:30;27.20;99.90
12634;DHT22;6382;48.614;8.880;2022-07-23T12:22:58;26.80;99.90
12634;DHT22;6382;48.614;8.880;2022-07-23T12:25:30;26.70;99.90
12634;DHT22;6382;48.614;8.880;2022-07-23T12:28:00;26.80;99.90
12634;DHT22;6382;48.614;8.880;2022-07-23T12:30:30;26.80;99.90
12634;DHT22;6382;48.614;8.880;2022-07-23T12:33:00;26.80;99.90
12634;DHT22;6382;48.614;8.880;2022-07-23T12:35:30;26.90;99.90
12634;DHT22;6382;48.614;8.880;2022-07-23T12:37:59;26.70;99.90
12634;DHT22;6382;48.614;8.880;2022-07-23T12:43:06;26.60;99.90
12634;DHT22;6382;48.614;8.880;2022-07-23T12:45:44;26.60;99.90
12634;DHT22;6382;48.614;8.880;2022-07-23T12:48:15;26.60;99.90
12634;DHT22;6382;48.614;8.880;2022-07-23T12:50:56;26.80;99.90
12634;DHT22;6382;48.614;8.880;2022-07-23T12:53:24;26.80;99.90
12634;DHT22;6382;48.614;8.880;2022-07-23T12:55:58;26.90;99.90
12634;DHT22;6382;48.614;8.880;2022-07-23T13:01:30;26.80;99.90
12634;DHT22;6382;48.614;8.880;2022-07-23T13:06:43;26.70;99.90
12634;DHT22;6382;48.614;8.880;2022-07-23T13:09:15;26.80;99.90
12634;DHT22;6382;48.614;8.880;2022-07-23T13:11:42;27.00;99.90
12634;DHT22;6382;48.614;8.880;2022-07-23T13:14:09;28.00;99.90
12634;DHT22;6382;48.614;8.880;2022-07-23T13:16:37;27.20;99.90
12634;DHT22;6382;48.614;8.880;2022-07-23T13:19:04;27.80;99.90
12634;DHT22;6382;48.614;8.880;2022-07-23T13:21:36;28.80;99.90
12634;DHT22;6382;48.614;8.880;2022-07-23T13:24:03;27.40;99.90
12634;DHT22;6382;48.614;8.880;2022-07-23T13:26:34;27.40;99.90
12634;DHT22;6382;48.614;8.880;2022-07-23T13:29:01;27.40;99.90
12634;DHT22;6382;48.614;8.880;2022-07-23T13:31:29;27.40;99.90
12634;DHT22;6382;48.614;8.880;2022-07-23T13:33:56;27.40;99.90
12634;DHT22;6382;48.614;8.880;2022-07-23T13:36:22;28.10;99.90
12634;DHT22;6382;48.614;8.880;2022-07-23T13:38:49;27.90;99.90
12634;DHT22;6382;48.614;8.880;2022-07-23T13:41:16;27.30;99.90
12634;DHT22;6382;48.614;8.880;2022-07-23T13:43:44;27.30;99.90
12634;DHT22;6382;48.614;8.880;2022-07-23T13:46:13;27.10;99.90
12634;DHT22;6382;48.614;8.880;2022-07-23T13:48:40;27.10;99.90
12634;DHT22;6382;48.614;8.880;2022-07-23T13:51:07;27.10;99.90
12634;DHT22;6382;48.614;8.880;2022-07-23T13:53:36;26.90;99.90
12634;DHT22;6382;48.614;8.880;2022-07-23T13:56:03;26.90;99.90
12634;DHT22;6382;48.614;8.880;2022-07-23T13:58:30;27.00;99.90
12634;DHT22;6382;48.614;8.880;2022-07-23T14:00:56;27.10;99.90
12634;DHT22;6382;48.614;8.880;2022-07-23T14:03:23;27.10;99.90
12634;DHT22;6382;48.614;8.880;2022-07-23T14:05:51;27.20;99.90
12634;DHT22;6382;48.614;8.880;2022-07-23T14:08:22;27.10;99.90
12634;DHT22;6382;48.614;8.880;2022-07-23T14:10:48;27.10;99.90
12634;DHT22;6382;48.614;8.880;2022-07-23T14:13:15;27.30;99.90
12634;DHT22;6382;48.614;8.880;2022-07-23T14:15:42;27.50;99.90
12634;DHT22;6382;48.614;8.880;2022-07-23T14:18:09;27.60;99.90
12634;DHT22;6382;48.614;8.880;2022-07-23T14:20:36;27.70;99.90
12634;DHT22;6382;48.614;8.880;2022-07-23T14:23:03;27.90;99.90
12634;DHT22;6382;48.614;8.880;2022-07-23T14:25:31;27.90;99.90
12634;DHT22;6382;48.614;8.880;2022-07-23T14:27:59;28.00;99.90
12634;DHT22;6382;48.614;8.880;2022-07-23T14:30:26;28.00;99.90
12634;DHT22;6382;48.614;8.880;2022-07-23T14:32:59;28.10;99.90
12634;DHT22;6382;48.614;8.880;2022-07-23T14:35:26;28.30;99.90
12634;DHT22;6382;48.614;8.880;2022-07-23T14:37:53;28.50;99.90
12634;DHT22;6382;48.614;8.880;2022-07-23T14:40:20;28.30;99.90
12634;DHT22;6382;48.614;8.880;2022-07-23T14:42:49;28.20;99.90
12634;DHT22;6382;48.614;8.880;2022-07-23T14:45:15;28.20;99.90
12634;DHT22;6382;48.614;8.880;2022-07-23T14:47:44;28.20;99.90
12634;DHT22;6382;48.614;8.880;2022-07-23T14:50:13;28.20;99.90
12634;DHT22;6382;48.614;8.880;2022-07-23T14:52:40;28.20;99.90
12634;DHT22;6382;48.614;8.880;2022-07-23T14:55:07;28.10;99.90
12634;DHT22;6382;48.614;8.880;2022-07-23T14:57:34;28.00;99.90
12634;DHT22;6382;48.614;8.880;2022-07-23T15:00:00;27.80;99.90
12634;DHT22;6382;48.614;8.880;2022-07-23T15:02:27;27.80;99.90
12634;DHT22;6382;48.614;8.880;2022-07-23T15:04:54;27.90;99.90
12634;DHT22;6382;48.614;8.880;2022-07-23T15:07:21;28.00;99.90
12634;DHT22;6382;48.614;8.880;2022-07-23T15:09:52;28.80;99.90
12634;DHT22;6382;48.614;8.880;2022-07-23T15:12:19;28.30;99.90
12634;DHT22;6382;48.614;8.880;2022-07-23T15:14:48;28.50;99.90
12634;DHT22;6382;48.614;8.880;2022-07-23T15:17:15;28.70;99.90
12634;DHT22;6382;48.614;8.880;2022-07-23T15:19:41;28.70;99.90
12634;DHT22;6382;48.614;8.880;2022-07-23T15:22:11;28.80;99.90
12634;DHT22;6382;48.614;8.880;2022-07-23T15:24:38;27.60;99.90
12634;DHT22;6382;48.614;8.880;2022-07-23T15:27:04;28.70;99.90
12634;DHT22;6382;48.614;8.880;2022-07-23T15:29:31;28.70;99.90
12634;DHT22;6382;48.614;8.880;2022-07-23T15:31:58;28.60;99.90
12634;DHT22;6382;48.614;8.880;2022-07-23T15:34:25;28.50;99.70
12634;DHT22;6382;48.614;8.880;2022-07-23T15:36:52;28.60;99.90
12634;DHT22;6382;48.614;8.880;2022-07-23T15:39:19;28.50;99.40
12634;DHT22;6382;48.614;8.880;2022-07-23T15:41:45;28.50;99.40
12634;DHT22;6382;48.614;8.880;2022-07-23T15:44:14;28.40;99.90
12634;DHT22;6382;48.614;8.880;2022-07-23T15:46:53;28.20;96.80
12634;DHT22;6382;48.614;8.880;2022-07-23T15:49:21;28.00;93.50
12634;DHT22;6382;48.614;8.880;2022-07-23T15:51:48;27.80;94.40
12634;DHT22;6382;48.614;8.880;2022-07-23T15:54:15;27.80;93.50
12634;DHT22;6382;48.614;8.880;2022-07-23T15:56:42;27.80;91.90
12634;DHT22;6382;48.614;8.880;2022-07-23T15:59:09;27.80;95.10
12634;DHT22;6382;48.614;8.880;2022-07-23T16:01:36;27.60;97.70
12634;DHT22;6382;48.614;8.880;2022-07-23T16:04:04;27.30;99.90
12634;DHT22;6382;48.614;8.880;2022-07-23T16:06:34;27.00;99.90
12634;DHT22;6382;48.614;8.880;2022-07-23T16:09:02;26.80;99.90
12634;DHT22;6382;48.614;8.880;2022-07-23T16:11:31;26.70;99.90
12634;DHT22;6382;48.614;8.880;2022-07-23T16:13:57;27.50;99.90
12634;DHT22;6382;48.614;8.880;2022-07-23T16:16:24;26.60;99.90
12634;DHT22;6382;48.614;8.880;2022-07-23T16:18:53;27.10;99.90
12634;DHT22;6382;48.614;8.880;2022-07-23T16:21:20;26.50;99.90
12634;DHT22;6382;48.614;8.880;2022-07-23T16:23:47;26.50;99.90
12634;DHT22;6382;48.614;8.880;2022-07-23T16:26:14;26.40;99.90
12634;DHT22;6382;48.614;8.880;2022-07-23T16:28:41;26.40;99.90
12634;DHT22;6382;48.614;8.880;2022-07-23T16:31:08;26.30;99.90
12634;DHT22;6382;48.614;8.880;2022-07-23T16:33:35;26.20;99.90
12634;DHT22;6382;48.614;8.880;2022-07-23T16:36:03;26.20;99.90